createdAt,value
2023-04-11T00:01:14.590Z,15.83
2023-04-11T00:03:41.199Z,15.27
2023-04-11T00:06:07.966Z,15.95
2023-04-11T00:08:34.454Z,15.30
2023-04-11T00:11:00.971Z,15.75
2023-04-11T00:13:27.417Z,14.33
2023-04-11T00:15:55.459Z,15.20
2023-04-11T00:18:22.859Z,14.75
2023-04-11T00:20:49.444Z,15.85
2023-04-11T00:23:16.145Z,15.23
2023-04-11T00:25:42.755Z,13.73
2023-04-11T00:28:10.013Z,15.65
2023-04-11T00:30:36.551Z,13.95
2023-04-11T00:33:04.044Z,13.93
2023-04-11T00:35:34.505Z,14.73
2023-04-11T00:38:02.163Z,14.13
2023-04-11T00:40:28.783Z,15.13
2023-04-11T00:42:56.754Z,18.55
2023-04-11T00:45:23.405Z,15.63
2023-04-11T00:47:50.709Z,11.98
2023-04-11T00:50:18.500Z,11.80
2023-04-11T00:52:48.219Z,16.38
2023-04-11T00:55:14.963Z,16.92
2023-04-11T00:57:42.792Z,15.75
2023-04-11T01:00:10.873Z,16.80
2023-04-11T01:02:38.817Z,14.87
2023-04-11T01:05:06.002Z,13.75
2023-04-11T01:07:33.141Z,16.02
2023-04-11T01:10:02.371Z,16.13
2023-04-11T01:12:30.556Z,13.70
2023-04-11T01:14:57.691Z,15.23
2023-04-11T01:17:25.823Z,16.77
2023-04-11T01:19:52.623Z,14.77
2023-04-11T01:22:23.165Z,13.50
2023-04-11T01:24:49.861Z,16.83
2023-04-11T01:27:16.432Z,14.93
2023-04-11T01:29:42.916Z,16.58
2023-04-11T01:32:09.433Z,17.90
2023-04-11T01:34:39.792Z,9.52
2023-04-11T01:37:06.571Z,12.80
2023-04-11T01:39:33.053Z,14.70
2023-04-11T01:42:02.761Z,15.25
2023-04-11T01:44:31.117Z,19.23
2023-04-11T01:46:57.583Z,17.65
2023-04-11T01:49:26.096Z,19.50
2023-04-11T01:51:52.793Z,16.73
2023-04-11T01:54:19.276Z,16.63
2023-04-11T01:56:46.337Z,15.85
2023-04-11T01:59:12.934Z,15.00
2023-04-11T02:01:42.883Z,11.73
2023-04-11T02:04:09.818Z,15.87
2023-04-11T02:06:36.565Z,14.57
2023-04-11T02:09:04.305Z,15.23
2023-04-11T02:11:30.930Z,15.65
2023-04-11T02:13:57.392Z,19.10
2023-04-11T02:16:25.878Z,16.70
2023-04-11T02:18:54.210Z,18.40
2023-04-11T02:21:20.925Z,19.40
2023-04-11T02:23:47.382Z,18.20
2023-04-11T02:26:13.844Z,18.27
2023-04-11T02:28:40.457Z,11.63
2023-04-11T02:31:07.262Z,12.65
2023-04-11T02:33:33.795Z,12.73
2023-04-11T02:36:00.607Z,13.60
2023-04-11T02:38:27.109Z,15.00
2023-04-11T02:40:53.556Z,16.80
2023-04-11T02:43:19.955Z,13.50
2023-04-11T02:45:46.826Z,15.38
2023-04-11T02:48:13.863Z,14.75
2023-04-11T02:50:40.975Z,16.42
2023-04-11T02:53:07.782Z,12.23
2023-04-11T02:55:35.015Z,17.92
2023-04-11T02:58:01.774Z,17.70
2023-04-11T03:00:29.219Z,10.90
2023-04-11T03:02:56.772Z,14.55
2023-04-11T03:05:23.498Z,19.67
2023-04-11T03:07:50.303Z,28.00
2023-04-11T03:10:16.806Z,18.35
2023-04-11T03:12:43.263Z,24.30
2023-04-11T03:15:10.622Z,22.98
2023-04-11T03:17:37.165Z,14.23
2023-04-11T03:20:07.208Z,21.73
2023-04-11T03:22:33.769Z,16.08
2023-04-11T03:25:00.615Z,13.63
2023-04-11T03:27:27.196Z,17.65
2023-04-11T03:29:53.736Z,22.07
2023-04-11T03:32:20.385Z,22.80
2023-04-11T03:34:46.875Z,20.90
2023-04-11T03:37:13.398Z,16.30
2023-04-11T03:39:39.886Z,20.20
2023-04-11T03:42:06.449Z,15.17
2023-04-11T03:44:32.973Z,15.45
2023-04-11T03:46:59.594Z,14.57
2023-04-11T03:49:26.166Z,15.60
2023-04-11T03:51:52.704Z,21.65
2023-04-11T03:54:19.261Z,18.83
2023-04-11T03:56:46.937Z,25.55
2023-04-11T03:59:13.412Z,24.88
2023-04-11T04:01:40.147Z,19.75
2023-04-11T04:04:07.651Z,21.80
2023-04-11T04:06:34.272Z,18.90
2023-04-11T04:09:00.767Z,22.98
2023-04-11T04:11:27.320Z,16.70
2023-04-11T04:13:54.043Z,18.58
2023-04-11T04:16:21.204Z,16.70
2023-04-11T04:18:48.021Z,18.37
2023-04-11T04:21:15.601Z,24.48
2023-04-11T04:23:47.440Z,19.42
2023-04-11T04:26:16.270Z,21.90
2023-04-11T04:28:46.238Z,22.13
2023-04-11T04:31:15.190Z,14.43
2023-04-11T04:33:43.019Z,20.38
2023-04-11T04:36:12.361Z,25.02
2023-04-11T04:38:42.113Z,19.85
2023-04-11T04:41:14.940Z,14.75
2023-04-11T04:43:44.576Z,19.23
2023-04-11T04:46:11.399Z,21.50
2023-04-11T04:48:38.019Z,19.77
2023-04-11T04:51:05.719Z,18.08
2023-04-11T04:53:34.925Z,20.80
2023-04-11T04:56:02.269Z,24.03
2023-04-11T04:58:28.843Z,21.10
2023-04-11T05:00:57.944Z,25.23
2023-04-11T05:03:24.629Z,19.55
2023-04-11T05:05:51.410Z,24.58
2023-04-11T05:08:20.678Z,22.37
2023-04-11T05:10:47.168Z,26.77
2023-04-11T05:13:13.780Z,28.70
2023-04-11T05:15:40.400Z,23.95
2023-04-11T05:18:06.907Z,21.52
2023-04-11T05:20:33.345Z,24.27
2023-04-11T05:22:59.858Z,21.25
2023-04-11T05:25:27.130Z,22.58
2023-04-11T05:27:53.727Z,21.33
2023-04-11T05:30:20.409Z,17.60
2023-04-11T05:32:47.741Z,26.53
2023-04-11T05:35:14.384Z,26.15
2023-04-11T05:37:43.002Z,21.20
2023-04-11T05:40:10.083Z,23.02
2023-04-11T05:42:36.523Z,23.15
2023-04-11T05:45:03.048Z,20.80
2023-04-11T05:47:29.626Z,26.85
2023-04-11T05:49:56.173Z,22.38
2023-04-11T05:52:22.721Z,24.95
2023-04-11T05:54:49.240Z,19.77
2023-04-11T05:57:17.455Z,20.00
2023-04-11T05:59:44.053Z,23.02
2023-04-11T06:02:10.846Z,21.98
2023-04-11T06:04:37.642Z,21.30
2023-04-11T06:07:04.640Z,18.00
2023-04-11T06:09:33.430Z,22.37
2023-04-11T06:12:01.410Z,20.05
2023-04-11T06:14:27.932Z,18.90
2023-04-11T06:16:54.477Z,16.85
2023-04-11T06:19:21.061Z,17.52
2023-04-11T06:21:47.577Z,16.43
2023-04-11T06:24:15.664Z,14.40
2023-04-11T06:26:42.111Z,16.58
2023-04-11T06:29:08.627Z,13.35
2023-04-11T06:31:35.313Z,15.70
2023-04-11T06:34:02.191Z,17.97
2023-04-11T06:36:29.803Z,19.40
2023-04-11T06:38:56.302Z,13.82
2023-04-11T06:41:22.806Z,18.83
2023-04-11T06:43:49.464Z,18.90
2023-04-11T06:46:16.180Z,15.13
2023-04-11T06:48:42.669Z,17.35
2023-04-11T06:51:10.550Z,20.13
2023-04-11T06:53:37.236Z,17.23
2023-04-11T06:56:04.171Z,19.75
2023-04-11T06:58:30.824Z,17.37
2023-04-11T07:00:57.354Z,19.30
2023-04-11T07:03:25.308Z,19.10
2023-04-11T07:05:52.286Z,16.15
2023-04-11T07:08:18.843Z,15.27
2023-04-11T07:10:45.562Z,17.00
2023-04-11T07:13:12.060Z,17.02
2023-04-11T07:15:38.772Z,19.02
2023-04-11T07:18:05.419Z,18.63
2023-04-11T07:20:35.210Z,17.98
2023-04-11T07:23:02.928Z,19.63
2023-04-11T07:25:33.752Z,17.60
2023-04-11T07:28:00.821Z,17.20
2023-04-11T07:30:28.348Z,17.55
2023-04-11T07:32:54.898Z,19.90
2023-04-11T07:35:22.281Z,17.60
2023-04-11T07:37:48.798Z,19.15
2023-04-11T07:40:15.566Z,17.77
2023-04-11T07:42:42.305Z,18.70
2023-04-11T07:45:09.401Z,15.32
2023-04-11T07:47:36.061Z,17.73
2023-04-11T07:50:03.586Z,21.38
2023-04-11T07:52:30.377Z,21.80
2023-04-11T07:54:56.920Z,19.23
2023-04-11T07:57:23.558Z,17.95
2023-04-11T07:59:50.117Z,17.83
2023-04-11T08:02:16.797Z,20.17
2023-04-11T08:04:43.452Z,18.70
2023-04-11T08:07:10.035Z,14.68
2023-04-11T08:09:36.527Z,16.85
2023-04-11T08:12:04.624Z,15.83
2023-04-11T08:14:31.109Z,16.75
2023-04-11T08:16:59.090Z,14.25
2023-04-11T08:19:25.863Z,14.07
2023-04-11T08:21:52.844Z,15.35
2023-04-11T08:24:19.728Z,14.60
2023-04-11T08:26:49.000Z,14.25
2023-04-11T08:29:15.609Z,13.50
2023-04-11T08:31:45.030Z,13.10
2023-04-11T08:34:12.830Z,14.93
2023-04-11T08:36:39.339Z,14.20
2023-04-11T08:39:05.834Z,12.20
2023-04-11T08:41:33.389Z,13.30
2023-04-11T08:44:00.659Z,13.75
2023-04-11T08:46:27.350Z,14.02
2023-04-11T08:48:54.775Z,15.23
2023-04-11T08:51:26.931Z,12.13
2023-04-11T08:53:54.601Z,12.23
2023-04-11T08:56:21.309Z,9.93
2023-04-11T08:58:48.393Z,15.40
2023-04-11T09:01:32.528Z,13.37
2023-04-11T09:04:01.292Z,14.73
2023-04-11T09:06:32.490Z,15.80
2023-04-11T09:09:00.705Z,14.27
2023-04-11T09:11:27.620Z,15.30
2023-04-11T09:14:08.359Z,13.00
2023-04-11T09:16:35.200Z,12.07
2023-04-11T09:19:01.856Z,13.27
2023-04-11T09:21:29.436Z,14.95
2023-04-11T09:24:16.433Z,14.43
2023-04-11T09:26:42.990Z,13.53
2023-04-11T09:29:09.512Z,16.40
2023-04-11T09:31:43.508Z,13.48
2023-04-11T09:34:12.163Z,15.32
2023-04-11T09:36:39.453Z,16.58
2023-04-11T09:39:19.512Z,16.00
2023-04-11T09:41:46.356Z,15.82
2023-04-11T09:44:13.074Z,17.55
2023-04-11T09:46:59.201Z,17.38
2023-04-11T09:49:25.934Z,15.80
2023-04-11T09:51:53.032Z,14.20
2023-04-11T09:54:22.869Z,12.50
2023-04-11T09:56:50.450Z,13.35
2023-04-11T09:59:18.662Z,15.23
2023-04-11T10:01:50.085Z,18.38
2023-04-11T10:04:16.803Z,15.53
2023-04-11T10:07:16.930Z,15.07
2023-04-11T10:09:45.419Z,14.85
2023-04-11T10:12:13.196Z,14.65
2023-04-11T10:14:41.335Z,13.65
2023-04-11T10:17:19.771Z,13.73
2023-04-11T10:19:49.037Z,12.82
2023-04-11T10:23:00.879Z,12.93
2023-04-11T10:25:28.736Z,11.18
2023-04-11T10:28:00.965Z,15.35
2023-04-11T10:30:40.077Z,14.37
2023-04-11T10:33:13.421Z,14.43
2023-04-11T10:36:05.965Z,13.20
2023-04-11T10:38:41.690Z,13.32
2023-04-11T10:41:25.478Z,13.27
2023-04-11T10:44:11.877Z,13.83
2023-04-11T10:46:46.314Z,13.98
2023-04-11T10:49:13.592Z,12.48
2023-04-11T10:51:41.031Z,11.18
2023-04-11T10:54:24.899Z,10.23
2023-04-11T10:56:51.505Z,11.13
2023-04-11T10:59:34.312Z,10.57
2023-04-11T11:02:02.493Z,12.32
2023-04-11T11:04:32.980Z,13.73
2023-04-11T11:07:07.229Z,12.43
2023-04-11T11:09:34.817Z,11.53
2023-04-11T11:12:21.621Z,15.23
2023-04-11T11:14:48.475Z,13.25
2023-04-11T11:17:16.173Z,12.25
2023-04-11T11:19:47.089Z,12.20
2023-04-11T11:22:17.917Z,11.23
2023-04-11T11:24:44.821Z,11.27
2023-04-11T11:27:22.605Z,10.93
2023-04-11T11:29:49.735Z,10.10
2023-04-11T11:32:28.917Z,9.02
2023-04-11T11:34:57.624Z,9.67
2023-04-11T11:37:24.913Z,8.45
2023-04-11T11:39:51.738Z,8.32
2023-04-11T11:42:18.705Z,7.63
2023-04-11T11:44:45.400Z,7.07
2023-04-11T11:47:15.110Z,5.83
2023-04-11T11:49:52.348Z,6.53
2023-04-11T11:52:42.507Z,6.45
2023-04-11T11:55:18.333Z,7.25
2023-04-11T11:57:46.233Z,7.05
2023-04-11T12:00:13.941Z,7.07
2023-04-11T12:02:43.023Z,6.32
2023-04-11T12:05:12.349Z,5.65
2023-04-11T12:07:39.861Z,6.10
2023-04-11T12:10:09.239Z,6.50
2023-04-11T12:12:37.869Z,7.03
2023-04-11T12:15:16.658Z,7.43
2023-04-11T12:17:44.030Z,7.53
2023-04-11T12:20:11.198Z,7.72
2023-04-11T12:22:38.361Z,7.50
2023-04-11T12:25:10.092Z,8.17
2023-04-11T12:27:42.290Z,7.93
2023-04-11T12:30:10.144Z,9.05
2023-04-11T12:32:36.968Z,7.90
2023-04-11T12:35:05.592Z,7.60
2023-04-11T12:37:33.089Z,7.17
2023-04-11T12:39:59.710Z,9.07
2023-04-11T12:42:27.431Z,9.02
2023-04-11T12:44:54.735Z,8.10
2023-04-11T12:47:21.367Z,8.77
2023-04-11T12:49:47.950Z,10.10
2023-04-11T12:52:14.612Z,9.40
2023-04-11T12:54:41.245Z,11.07
2023-04-11T12:57:07.873Z,10.45
2023-04-11T12:59:34.566Z,9.68
2023-04-11T13:02:02.080Z,10.13
2023-04-11T13:04:28.905Z,12.13
2023-04-11T13:07:00.769Z,11.82
2023-04-11T13:09:33.568Z,11.00
2023-04-11T13:12:03.418Z,11.68
2023-04-11T13:14:30.662Z,10.63
2023-04-11T13:16:57.138Z,10.50
2023-04-11T13:19:26.506Z,10.48
2023-04-11T13:21:53.044Z,7.20
2023-04-11T13:24:19.509Z,6.53
2023-04-11T13:26:46.184Z,6.07
2023-04-11T13:29:12.706Z,5.47
2023-04-11T13:31:39.328Z,6.40
2023-04-11T13:34:06.118Z,5.88
2023-04-11T13:36:32.646Z,5.03
2023-04-11T13:38:59.481Z,4.60
2023-04-11T13:41:26.150Z,5.25
2023-04-11T13:43:53.066Z,5.03
2023-04-11T13:46:21.569Z,4.50
2023-04-11T13:48:48.281Z,3.92
2023-04-11T13:51:14.909Z,3.70
2023-04-11T13:53:41.560Z,3.50
2023-04-11T13:56:08.465Z,3.42
2023-04-11T13:58:35.422Z,3.20
2023-04-11T14:01:02.020Z,3.78
2023-04-11T14:03:33.100Z,3.43
2023-04-11T14:06:00.960Z,3.80
2023-04-11T14:08:28.603Z,3.97
2023-04-11T14:10:55.630Z,3.10
2023-04-11T14:13:22.462Z,3.17
2023-04-11T14:15:54.821Z,3.10
2023-04-11T14:18:31.822Z,2.70
2023-04-11T14:21:01.179Z,3.50
2023-04-11T14:23:29.013Z,3.72
2023-04-11T14:25:55.547Z,3.30
2023-04-11T14:28:22.313Z,4.00
2023-04-11T14:30:48.991Z,3.67
2023-04-11T14:33:15.832Z,4.07
2023-04-11T14:35:46.837Z,3.80
2023-04-11T14:38:17.500Z,4.22
2023-04-11T14:40:44.441Z,3.60
2023-04-11T14:43:11.299Z,3.40
2023-04-11T14:45:37.928Z,4.13
2023-04-11T14:48:04.802Z,3.92
2023-04-11T14:50:31.473Z,3.75
2023-04-11T14:52:58.301Z,4.17
2023-04-11T14:55:24.832Z,3.92
2023-04-11T14:57:53.074Z,4.63
2023-04-11T15:00:20.309Z,4.32
2023-04-11T15:02:48.293Z,3.80
2023-04-11T15:05:17.208Z,4.07
2023-04-11T15:07:48.115Z,3.65
2023-04-11T15:10:16.964Z,3.63
2023-04-11T15:12:43.587Z,3.40
2023-04-11T15:15:11.502Z,3.00
2023-04-11T15:17:43.736Z,3.77
2023-04-11T15:20:11.875Z,3.65
2023-04-11T15:22:41.797Z,4.18
2023-04-11T15:25:11.410Z,4.40
2023-04-11T15:27:38.162Z,4.93
2023-04-11T15:30:06.091Z,6.17
2023-04-11T15:32:33.021Z,5.10
2023-04-11T15:34:59.808Z,5.68
2023-04-11T15:37:27.132Z,4.32
2023-04-11T15:39:54.288Z,4.28
2023-04-11T15:42:20.749Z,3.97
2023-04-11T15:44:47.272Z,3.80
2023-04-11T15:47:14.018Z,4.03
2023-04-11T15:49:41.002Z,3.40
2023-04-11T15:52:07.629Z,4.07
2023-04-11T15:54:34.189Z,4.60
2023-04-11T15:57:02.363Z,3.95
2023-04-11T15:59:29.474Z,3.30
2023-04-11T16:02:01.915Z,3.83
2023-04-11T16:04:29.817Z,4.45
2023-04-11T16:06:56.973Z,5.03
2023-04-11T16:09:23.502Z,6.90
2023-04-11T16:11:50.088Z,4.80
2023-04-11T16:14:16.628Z,4.55
2023-04-11T16:16:46.112Z,6.75
2023-04-11T16:19:14.013Z,5.47
2023-04-11T16:21:40.776Z,5.72
2023-04-11T16:24:08.892Z,6.57
2023-04-11T16:26:35.803Z,6.97
2023-04-11T16:29:03.386Z,7.53
2023-04-11T16:31:31.479Z,7.70
2023-04-11T16:33:58.303Z,5.88
2023-04-11T16:36:27.282Z,6.63
2023-04-11T16:38:54.785Z,6.68
2023-04-11T16:41:21.773Z,7.65
2023-04-11T16:43:48.324Z,7.40
2023-04-11T16:46:15.551Z,7.38
2023-04-11T16:48:43.084Z,7.07
2023-04-11T16:51:13.414Z,6.57
2023-04-11T16:53:40.649Z,6.15
2023-04-11T16:56:07.532Z,5.57
2023-04-11T16:58:34.200Z,5.25
2023-04-11T17:01:01.640Z,6.35
2023-04-11T17:03:28.584Z,5.05
2023-04-11T17:05:55.513Z,5.75
2023-04-11T17:08:22.077Z,5.80
2023-04-11T17:10:48.689Z,4.70
2023-04-11T17:13:16.063Z,4.82
2023-04-11T17:15:42.721Z,3.88
2023-04-11T17:18:09.358Z,4.20
2023-04-11T17:20:36.080Z,3.53
2023-04-11T17:23:02.866Z,3.67
2023-04-11T17:25:30.084Z,3.80
2023-04-11T17:28:00.285Z,4.57
2023-04-11T17:30:27.862Z,6.07
2023-04-11T17:32:55.384Z,4.83
2023-04-11T17:35:22.163Z,4.75
2023-04-11T17:37:49.644Z,4.82
2023-04-11T17:40:17.358Z,5.00
2023-04-11T17:42:44.012Z,4.47
2023-04-11T17:45:17.792Z,4.87
2023-04-11T17:47:45.706Z,4.25
2023-04-11T17:50:13.358Z,5.25
2023-04-11T17:52:41.739Z,4.38
2023-04-11T17:55:10.383Z,4.50
2023-04-11T17:57:37.056Z,3.80
2023-04-11T18:00:16.103Z,3.97
2023-04-11T18:02:46.574Z,3.55
2023-04-11T18:05:22.881Z,3.25
2023-04-11T18:07:50.656Z,3.70
2023-04-11T18:10:18.400Z,2.93
2023-04-11T18:12:48.597Z,3.35
2023-04-11T18:15:15.183Z,3.13
2023-04-11T18:17:42.120Z,2.65
2023-04-11T18:20:10.899Z,3.10
2023-04-11T18:22:51.818Z,3.10
2023-04-11T18:25:18.448Z,2.45
2023-04-11T18:27:45.270Z,2.53
2023-04-11T18:30:16.919Z,2.78
2023-04-11T18:32:49.539Z,3.20
2023-04-11T18:35:17.176Z,2.90
2023-04-11T18:37:46.554Z,2.42
2023-04-11T18:40:17.369Z,2.55
2023-04-11T18:42:47.824Z,2.33
2023-04-11T18:45:17.982Z,3.08
2023-04-11T18:47:47.644Z,2.67
2023-04-11T18:50:14.953Z,2.63
2023-04-11T18:52:42.971Z,2.88
2023-04-11T18:55:10.345Z,2.55
2023-04-11T18:57:38.486Z,3.17
2023-04-11T19:00:17.557Z,3.13
2023-04-11T19:02:46.763Z,4.00
2023-04-11T19:05:14.303Z,3.15
2023-04-11T19:07:42.297Z,3.40
2023-04-11T19:10:10.873Z,4.22
2023-04-11T19:12:38.052Z,3.63
2023-04-11T19:15:07.863Z,3.72
2023-04-11T19:17:38.847Z,4.72
2023-04-11T19:20:07.190Z,3.92
2023-04-11T19:22:34.622Z,4.93
2023-04-11T19:25:01.428Z,4.17
2023-04-11T19:27:28.016Z,4.07
2023-04-11T19:29:54.577Z,4.53
2023-04-11T19:32:21.312Z,4.95
2023-04-11T19:34:49.520Z,3.92
2023-04-11T19:37:16.686Z,3.50
2023-04-11T19:39:44.000Z,3.58
2023-04-11T19:42:11.834Z,3.63
2023-04-11T19:44:38.563Z,3.45
2023-04-11T19:47:05.510Z,3.72
2023-04-11T19:49:32.209Z,3.47
2023-04-11T19:51:58.832Z,3.65
2023-04-11T19:54:25.516Z,3.65
2023-04-11T19:56:53.054Z,2.97
2023-04-11T19:59:21.098Z,3.40
2023-04-11T20:01:48.407Z,2.83
2023-04-11T20:04:16.008Z,3.15
2023-04-11T20:06:46.698Z,2.95
2023-04-11T20:09:20.840Z,2.97
2023-04-11T20:11:50.687Z,2.70
2023-04-11T20:14:17.261Z,3.17
2023-04-11T20:16:43.832Z,3.08
2023-04-11T20:19:10.362Z,3.10
2023-04-11T20:21:36.924Z,3.03
2023-04-11T20:24:03.701Z,3.15
2023-04-11T20:26:30.410Z,2.97
2023-04-11T20:29:00.030Z,3.60
2023-04-11T20:31:26.856Z,3.53
2023-04-11T20:33:53.496Z,3.30
2023-04-11T20:36:20.373Z,3.17
2023-04-11T20:38:46.911Z,2.83
2023-04-11T20:41:13.682Z,3.22
2023-04-11T20:43:42.204Z,3.17
2023-04-11T20:46:08.816Z,2.97
2023-04-11T20:48:35.400Z,3.30
2023-04-11T20:51:02.181Z,3.40
2023-04-11T20:53:28.983Z,3.20
2023-04-11T20:55:55.510Z,3.05
2023-04-11T20:58:22.172Z,2.88
2023-04-11T21:00:49.093Z,3.53
2023-04-11T21:03:15.853Z,3.30
2023-04-11T21:05:46.664Z,3.30
2023-04-11T21:08:13.752Z,3.17
2023-04-11T21:10:40.374Z,3.15
2023-04-11T21:13:06.902Z,3.00
2023-04-11T21:15:34.499Z,2.47
2023-04-11T21:18:01.105Z,2.95
2023-04-11T21:20:27.719Z,3.40
2023-04-11T21:22:54.329Z,3.63
2023-04-11T21:25:22.138Z,3.05
2023-04-11T21:27:49.763Z,3.23
2023-04-11T21:30:16.297Z,3.15
2023-04-11T21:32:42.864Z,3.78
2023-04-11T21:35:10.456Z,3.22
2023-04-11T21:37:37.178Z,3.25
2023-04-11T21:40:04.173Z,3.53
2023-04-11T21:42:31.099Z,3.40
2023-04-11T21:44:57.764Z,3.08
2023-04-11T21:47:24.256Z,3.75
2023-04-11T21:49:50.981Z,3.42
2023-04-11T21:52:17.501Z,3.47
2023-04-11T21:54:44.103Z,4.05
2023-04-11T21:57:10.979Z,3.92
2023-04-11T21:59:38.874Z,4.00
2023-04-11T22:02:06.814Z,3.60
2023-04-11T22:04:47.377Z,3.37
2023-04-11T22:07:18.291Z,3.03
2023-04-11T22:09:46.719Z,3.67
2023-04-11T22:12:17.490Z,3.00
2023-04-11T22:14:44.022Z,3.50
2023-04-11T22:17:10.567Z,4.27
2023-04-11T22:19:37.015Z,3.70
2023-04-11T22:22:08.057Z,4.13
2023-04-11T22:24:34.751Z,3.78
2023-04-11T22:27:04.292Z,3.80
2023-04-11T22:29:31.118Z,3.30
2023-04-11T22:31:59.521Z,3.80
2023-04-11T22:34:30.043Z,4.60
2023-04-11T22:36:57.765Z,3.97
2023-04-11T22:39:25.431Z,3.45
2023-04-11T22:41:53.446Z,3.90
2023-04-11T22:44:20.287Z,4.13
2023-04-11T22:47:04.046Z,3.83
2023-04-11T22:49:32.261Z,4.10
2023-04-11T22:52:02.091Z,3.60
2023-04-11T22:54:28.811Z,3.47
2023-04-11T22:56:57.325Z,3.85
2023-04-11T22:59:25.870Z,4.35
2023-04-11T23:01:52.678Z,3.83
2023-04-11T23:04:22.324Z,3.95
2023-04-11T23:06:50.279Z,3.70
2023-04-11T23:09:20.323Z,3.97
2023-04-11T23:11:47.655Z,3.50
2023-04-11T23:14:15.330Z,4.38
2023-04-11T23:16:43.258Z,4.28
2023-04-11T23:19:10.668Z,3.90
2023-04-11T23:21:37.806Z,4.00
2023-04-11T23:24:06.676Z,4.13
2023-04-11T23:26:33.514Z,4.15
2023-04-11T23:29:02.145Z,4.22
2023-04-11T23:31:28.865Z,4.93
2023-04-11T23:33:55.717Z,4.22
2023-04-11T23:36:22.751Z,4.20
2023-04-11T23:38:49.284Z,4.28
2023-04-11T23:41:15.835Z,4.32
2023-04-11T23:43:42.335Z,3.50
2023-04-11T23:46:08.907Z,3.65
2023-04-11T23:48:35.905Z,4.25
2023-04-11T23:51:02.535Z,4.22
2023-04-11T23:53:29.242Z,4.45
2023-04-11T23:55:55.921Z,3.87
2023-04-11T23:58:22.413Z,4.07
